KBEC/BEC METAR and TAF weather

Enter ICAO airport designator
Station Type Date Time Source
KBEC METAR 2020/11/27 14:35 UTC NOAA

KBEC 271435Z AUTO 01008KT 5SM BR OVC005 01/00 A3024 RMK AO2 T00100000


Station Type Date Time Source
KBEC Decoded METAR 2020/11/27 14:35 UTC NOAA

Station name not available
Nov 27, 2020 - 09:35 AM EST / 2020.11.27 1435 UTC
Wind: from the N (010 degrees) at 9 MPH (8 KT):0
Visibility: 5 mile(s):0
Sky conditions: overcast
Weather: mist
Temperature: 33.8 F (1.0 C)
Windchill: 26 F (-3 C):1
Dew Point: 32.0 F (0.0 C)
Relative Humidity: 93%
Pressure (altimeter): 30.24 in. Hg (1024 hPa)
ob: KBEC 271435Z AUTO 01008KT 5SM BR OVC005 01/00 A3024 RMK AO2 T00100000
cycle: 14

Station Type Date Time Source
KBEC TAF UTC NOAA

Error!

Example: see airport list